Normandia, Brazil
Current Conditions -  °F | °C
As of 3:00 AM on Sunday 21 Dec 2014 (Local Time) from SBBV Reporting Station
Clear Clear  
Wind Chill: 75°   Ceiling: Unl
Heat Index: 75°   Visibility: 6mi
Dew Point: 68°   Wind: 13mph
Humidity: 78%   Direction: 60°ENE
Pressure: 29.8"   Gusts: NA
Location:  3.89°N, 59.61°W
Report Text: SBBV 210700Z 06011KT CAVOK 24/20 Q1009
Loading
Personal Weather Stations






























Interactive Weather Map New forecast layout! Learn more

10-Day Weather Forecast

Advertisements
Track Severe Weather on mobile